sensor_id;sensor_type;location;lat;lon;timestamp;pressure;altitude;pressure_sealevel;temperature;humidity
54194;BME280;40102;50.906;6.972;2023-05-19T00:01:50;101826.56;;;15.97;47.16
54194;BME280;40102;50.906;6.972;2023-05-19T00:04:16;101821.38;;;15.94;47.29
54194;BME280;40102;50.906;6.972;2023-05-19T00:06:42;101827.91;;;15.90;47.38
54194;BME280;40102;50.906;6.972;2023-05-19T00:09:12;101825.47;;;15.85;47.39
54194;BME280;40102;50.906;6.972;2023-05-19T00:11:38;101822.88;;;15.83;47.80
54194;BME280;40102;50.906;6.972;2023-05-19T00:14:06;101829.41;;;15.79;47.84
54194;BME280;40102;50.906;6.972;2023-05-19T00:16:32;101828.56;;;15.79;47.91
54194;BME280;40102;50.906;6.972;2023-05-19T00:18:59;101823.25;;;15.77;47.95
54194;BME280;40102;50.906;6.972;2023-05-19T00:21:25;101831.44;;;15.76;47.89
54194;BME280;40102;50.906;6.972;2023-05-19T00:23:50;101825.16;;;15.75;47.96
54194;BME280;40102;50.906;6.972;2023-05-19T00:26:16;101822.56;;;15.74;47.90
54194;BME280;40102;50.906;6.972;2023-05-19T00:28:42;101817.16;;;15.74;48.14
54194;BME280;40102;50.906;6.972;2023-05-19T00:31:07;101822.66;;;15.72;47.95
54194;BME280;40102;50.906;6.972;2023-05-19T00:33:33;101823.63;;;15.71;47.91
54194;BME280;40102;50.906;6.972;2023-05-19T00:36:02;101825.53;;;15.69;48.00
54194;BME280;40102;50.906;6.972;2023-05-19T00:38:33;101825.53;;;15.69;48.25
54194;BME280;40102;50.906;6.972;2023-05-19T00:40:59;101827.47;;;15.67;48.26
54194;BME280;40102;50.906;6.972;2023-05-19T00:43:25;101829.38;;;15.65;48.54
54194;BME280;40102;50.906;6.972;2023-05-19T00:45:50;101824.06;;;15.64;48.26
54194;BME280;40102;50.906;6.972;2023-05-19T00:48:16;101822.44;;;15.61;48.46
54194;BME280;40102;50.906;6.972;2023-05-19T00:50:42;101819.06;;;15.58;48.50
54194;BME280;40102;50.906;6.972;2023-05-19T00:53:08;101824.38;;;15.59;48.75
54194;BME280;40102;50.906;6.972;2023-05-19T00:55:36;101820.00;;;15.57;49.01
54194;BME280;40102;50.906;6.972;2023-05-19T00:58:03;101822.78;;;15.55;48.85
54194;BME280;40102;50.906;6.972;2023-05-19T01:00:30;101819.50;;;15.50;49.19
54194;BME280;40102;50.906;6.972;2023-05-19T01:02:56;101825.84;;;15.49;48.90
54194;BME280;40102;50.906;6.972;2023-05-19T01:05:21;101824.09;;;15.48;49.20
54194;BME280;40102;50.906;6.972;2023-05-19T01:07:47;101825.25;;;15.44;49.09
54194;BME280;40102;50.906;6.972;2023-05-19T01:10:18;101821.69;;;15.43;49.30
54194;BME280;40102;50.906;6.972;2023-05-19T01:12:43;101827.25;;;15.40;49.44
54194;BME280;40102;50.906;6.972;2023-05-19T01:15:09;101821.88;;;15.40;49.55
54194;BME280;40102;50.906;6.972;2023-05-19T01:18:06;101822.13;;;15.36;49.59
54194;BME280;40102;50.906;6.972;2023-05-19T01:20:39;101823.09;;;15.35;49.56
54194;BME280;40102;50.906;6.972;2023-05-19T01:31:59;101812.94;;;15.24;50.01
54194;BME280;40102;50.906;6.972;2023-05-19T01:34:25;101813.09;;;15.21;50.38
54194;BME280;40102;50.906;6.972;2023-05-19T01:36:53;101803.47;;;15.17;50.18
54194;BME280;40102;50.906;6.972;2023-05-19T01:39:20;101807.13;;;15.16;50.36
54194;BME280;40102;50.906;6.972;2023-05-19T01:41:47;101800.06;;;15.13;50.38
54194;BME280;40102;50.906;6.972;2023-05-19T01:44:14;101804.69;;;15.11;50.68
54194;BME280;40102;50.906;6.972;2023-05-19T01:46:40;101812.00;;;15.09;50.73
54194;BME280;40102;50.906;6.972;2023-05-19T01:49:06;101806.78;;;15.06;50.71
54194;BME280;40102;50.906;6.972;2023-05-19T01:51:32;101806.78;;;15.06;50.83
54194;BME280;40102;50.906;6.972;2023-05-19T01:53:57;101805.03;;;15.05;50.75
54194;BME280;40102;50.906;6.972;2023-05-19T01:56:37;101804.16;;;15.05;51.10
54194;BME280;40102;50.906;6.972;2023-05-19T02:01:56;101801.03;;;14.97;51.12
54194;BME280;40102;50.906;6.972;2023-05-19T02:04:42;101814.69;;;14.94;51.19
54194;BME280;40102;50.906;6.972;2023-05-19T02:07:14;101818.75;;;14.85;51.61
54194;BME280;40102;50.906;6.972;2023-05-19T02:09:52;101814.59;;;14.79;51.99
54194;BME280;40102;50.906;6.972;2023-05-19T02:12:28;101811.97;;;14.78;52.06
54194;BME280;40102;50.906;6.972;2023-05-19T02:17:29;101813.72;;;14.79;51.94
54194;BME280;40102;50.906;6.972;2023-05-19T02:20:00;101811.97;;;14.78;52.24
54194;BME280;40102;50.906;6.972;2023-05-19T02:22:26;101809.28;;;14.78;51.96
54194;BME280;40102;50.906;6.972;2023-05-19T02:24:51;101810.34;;;14.75;51.89
54194;BME280;40102;50.906;6.972;2023-05-19T02:27:17;101817.44;;;14.76;51.58
54194;BME280;40102;50.906;6.972;2023-05-19T02:29:42;101818.50;;;14.74;52.30
54194;BME280;40102;50.906;6.972;2023-05-19T02:32:08;101815.03;;;14.72;51.83
54194;BME280;40102;50.906;6.972;2023-05-19T02:34:33;101815.97;;;14.71;52.03
54194;BME280;40102;50.906;6.972;2023-05-19T02:36:59;101816.06;;;14.69;52.28
54194;BME280;40102;50.906;6.972;2023-05-19T02:39:25;101810.84;;;14.66;52.35
54194;BME280;40102;50.906;6.972;2023-05-19T02:41:50;101806.50;;;14.64;52.40
54194;BME280;40102;50.906;6.972;2023-05-19T02:44:16;101807.44;;;14.63;52.55
54194;BME280;40102;50.906;6.972;2023-05-19T02:46:41;101806.59;;;14.62;52.76
54194;BME280;40102;50.906;6.972;2023-05-19T02:49:06;101795.13;;;14.58;52.51
54194;BME280;40102;50.906;6.972;2023-05-19T02:51:32;101804.06;;;14.59;52.51
54194;BME280;40102;50.906;6.972;2023-05-19T02:53:57;101805.88;;;14.58;52.68
54194;BME280;40102;50.906;6.972;2023-05-19T02:56:23;101796.06;;;14.57;52.85
54194;BME280;40102;50.906;6.972;2023-05-19T02:58:48;101804.31;;;14.54;52.93
54194;BME280;40102;50.906;6.972;2023-05-19T03:01:14;101794.75;;;14.49;52.90
54194;BME280;40102;50.906;6.972;2023-05-19T03:03:40;101797.03;;;14.39;53.08
54194;BME280;40102;50.906;6.972;2023-05-19T03:06:05;101795.56;;;14.34;53.63
54194;BME280;40102;50.906;6.972;2023-05-19T03:08:35;101794.16;;;14.26;53.62
54194;BME280;40102;50.906;6.972;2023-05-19T03:11:01;101794.16;;;14.26;53.76
54194;BME280;40102;50.906;6.972;2023-05-19T03:13:26;101794.22;;;14.25;53.73
54194;BME280;40102;50.906;6.972;2023-05-19T03:15:52;101785.47;;;14.21;53.52
54194;BME280;40102;50.906;6.972;2023-05-19T03:18:21;101793.38;;;14.24;53.65
54194;BME280;40102;50.906;6.972;2023-05-19T03:20:48;101794.47;;;14.20;53.61
54194;BME280;40102;50.906;6.972;2023-05-19T03:23:14;101793.44;;;14.23;53.93
54194;BME280;40102;50.906;6.972;2023-05-19T03:25:39;101796.13;;;14.23;53.74
54194;BME280;40102;50.906;6.972;2023-05-19T03:28:04;101804.28;;;14.21;53.81
54194;BME280;40102;50.906;6.972;2023-05-19T03:30:30;101797.25;;;14.19;53.55
54194;BME280;40102;50.906;6.972;2023-05-19T03:32:55;101800.03;;;14.17;53.71
54194;BME280;40102;50.906;6.972;2023-05-19T03:35:21;101807.38;;;14.14;53.72
54194;BME280;40102;50.906;6.972;2023-05-19T03:37:46;101807.56;;;14.11;53.88
54194;BME280;40102;50.906;6.972;2023-05-19T03:40:12;101804.00;;;14.10;54.03
54194;BME280;40102;50.906;6.972;2023-05-19T03:42:37;101798.69;;;14.09;54.08
54194;BME280;40102;50.906;6.972;2023-05-19T03:45:03;101807.56;;;14.11;53.89
54194;BME280;40102;50.906;6.972;2023-05-19T03:47:28;101795.06;;;14.10;53.93
54194;BME280;40102;50.906;6.972;2023-05-19T03:49:55;101798.53;;;14.12;53.83
54194;BME280;40102;50.906;6.972;2023-05-19T03:52:21;101806.69;;;14.10;53.91
54194;BME280;40102;50.906;6.972;2023-05-19T03:54:46;101801.47;;;14.07;54.20
54194;BME280;40102;50.906;6.972;2023-05-19T03:57:13;101807.00;;;14.04;54.23
54194;BME280;40102;50.906;6.972;2023-05-19T03:59:38;101798.94;;;14.04;54.12
54194;BME280;40102;50.906;6.972;2023-05-19T04:02:05;101796.41;;;14.01;54.27
54194;BME280;40102;50.906;6.972;2023-05-19T04:04:31;101793.97;;;13.97;54.34
54194;BME280;40102;50.906;6.972;2023-05-19T04:06:56;101794.13;;;13.93;54.25
54194;BME280;40102;50.906;6.972;2023-05-19T04:09:22;101798.72;;;13.91;54.95
54194;BME280;40102;50.906;6.972;2023-05-19T04:11:48;101803.31;;;13.89;54.64
54194;BME280;40102;50.906;6.972;2023-05-19T04:14:16;101806.94;;;13.88;54.62
54194;BME280;40102;50.906;6.972;2023-05-19T04:16:41;101804.41;;;13.85;54.81
54194;BME280;40102;50.906;6.972;2023-05-19T04:19:07;101794.63;;;13.84;54.80
54194;BME280;40102;50.906;6.972;2023-05-19T04:21:32;101796.28;;;13.87;54.66
54194;BME280;40102;50.906;6.972;2023-05-19T04:23:58;101799.81;;;13.87;54.74
54194;BME280;40102;50.906;6.972;2023-05-19T04:26:24;101793.50;;;13.71;55.26
54194;BME280;40102;50.906;6.972;2023-05-19T04:28:51;101798.72;;;13.57;56.28
54194;BME280;40102;50.906;6.972;2023-05-19T04:31:18;101794.47;;;13.53;56.47
54194;BME280;40102;50.906;6.972;2023-05-19T04:33:45;101800.47;;;13.58;56.09
54194;BME280;40102;50.906;6.972;2023-05-19T04:36:12;101802.84;;;13.64;55.81
54194;BME280;40102;50.906;6.972;2023-05-19T04:38:38;101805.28;;;13.69;55.98
54194;BME280;40102;50.906;6.972;2023-05-19T04:41:06;101795.66;;;13.65;55.85
54194;BME280;40102;50.906;6.972;2023-05-19T04:43:35;101805.13;;;13.72;55.41
54194;BME280;40102;50.906;6.972;2023-05-19T04:46:00;101798.81;;;13.73;55.54
54194;BME280;40102;50.906;6.972;2023-05-19T04:48:30;101803.00;;;13.78;55.38
54194;BME280;40102;50.906;6.972;2023-05-19T04:50:55;101792.31;;;13.77;55.51
54194;BME280;40102;50.906;6.972;2023-05-19T04:53:20;101811.78;;;13.82;55.71
54194;BME280;40102;50.906;6.972;2023-05-19T04:55:46;101802.69;;;13.84;55.57
54194;BME280;40102;50.906;6.972;2023-05-19T04:58:11;101798.97;;;13.87;55.65
54194;BME280;40102;50.906;6.972;2023-05-19T05:00:37;101805.03;;;13.90;55.75
54194;BME280;40102;50.906;6.972;2023-05-19T05:03:02;101808.44;;;13.94;55.57
54194;BME280;40102;50.906;6.972;2023-05-19T05:05:31;101812.00;;;13.94;55.54
54194;BME280;40102;50.906;6.972;2023-05-19T05:07:57;101806.63;;;13.94;55.59
54194;BME280;40102;50.906;6.972;2023-05-19T05:10:26;101807.50;;;13.95;55.57
54194;BME280;40102;50.906;6.972;2023-05-19T05:12:51;101807.41;;;13.97;55.85
54194;BME280;40102;50.906;6.972;2023-05-19T05:15:17;101810.19;;;13.95;55.86
54194;BME280;40102;50.906;6.972;2023-05-19T05:17:43;101810.19;;;13.95;56.24
54194;BME280;40102;50.906;6.972;2023-05-19T05:20:09;101807.50;;;13.95;56.27
54194;BME280;40102;50.906;6.972;2023-05-19T05:22:36;101796.81;;;13.93;56.47
54194;BME280;40102;50.906;6.972;2023-05-19T05:25:03;101806.63;;;13.94;56.44
54194;BME280;40102;50.906;6.972;2023-05-19T05:27:28;101800.28;;;13.96;56.66
54194;BME280;40102;50.906;6.972;2023-05-19T05:29:54;101801.16;;;13.96;56.58
54194;BME280;40102;50.906;6.972;2023-05-19T05:32:20;101803.78;;;13.98;56.59
54194;BME280;40102;50.906;6.972;2023-05-19T05:34:48;101805.50;;;13.99;56.33
54194;BME280;40102;50.906;6.972;2023-05-19T05:37:14;101809.06;;;13.99;56.29
54194;BME280;40102;50.906;6.972;2023-05-19T05:39:40;101809.94;;;14.00;56.05
54194;BME280;40102;50.906;6.972;2023-05-19T05:42:05;101816.91;;;14.04;55.66
54194;BME280;40102;50.906;6.972;2023-05-19T05:44:33;101813.19;;;14.06;55.43
54194;BME280;40102;50.906;6.972;2023-05-19T05:47:00;101815.88;;;14.06;55.12
54194;BME280;40102;50.906;6.972;2023-05-19T05:49:26;101811.69;;;14.01;54.64
54194;BME280;40102;50.906;6.972;2023-05-19T05:51:51;101805.09;;;14.06;60.46
54194;BME280;40102;50.906;6.972;2023-05-19T05:54:19;101803.22;;;14.41;60.92
54194;BME280;40102;50.906;6.972;2023-05-19T05:56:45;101805.97;;;14.73;58.53
54194;BME280;40102;50.906;6.972;2023-05-19T05:59:11;101800.16;;;14.96;56.57
54194;BME280;40102;50.906;6.972;2023-05-19T06:01:37;101795.72;;;15.11;54.04
54194;BME280;40102;50.906;6.972;2023-05-19T06:04:03;101805.63;;;15.26;53.21
54194;BME280;40102;50.906;6.972;2023-05-19T06:06:28;101803.63;;;15.30;52.35
54194;BME280;40102;50.906;6.972;2023-05-19T06:08:54;101800.84;;;15.15;50.91
54194;BME280;40102;50.906;6.972;2023-05-19T06:11:19;101805.56;;;14.96;51.31
54194;BME280;40102;50.906;6.972;2023-05-19T06:13:45;101800.34;;;14.77;51.14
54194;BME280;40102;50.906;6.972;2023-05-19T06:16:10;101807.97;;;14.69;51.25
54194;BME280;40102;50.906;6.972;2023-05-19T06:18:36;101808.41;;;14.62;51.60
54194;BME280;40102;50.906;6.972;2023-05-19T06:21:01;101797.28;;;14.52;51.90
54194;BME280;40102;50.906;6.972;2023-05-19T06:23:28;101795.78;;;14.46;52.28
54194;BME280;40102;50.906;6.972;2023-05-19T06:25:54;101805.13;;;14.39;52.01
54194;BME280;40102;50.906;6.972;2023-05-19T06:28:20;101800.84;;;14.35;51.96
54194;BME280;40102;50.906;6.972;2023-05-19T06:30:45;101793.97;;;14.30;52.33
54194;BME280;40102;50.906;6.972;2023-05-19T06:33:11;101797.63;;;14.29;52.50
54194;BME280;40102;50.906;6.972;2023-05-19T06:35:36;101793.38;;;14.24;52.50
54194;BME280;40102;50.906;6.972;2023-05-19T06:38:02;101793.25;;;13.93;52.77
54194;BME280;40102;50.906;6.972;2023-05-19T06:40:27;101792.47;;;13.74;54.58
54194;BME280;40102;50.906;6.972;2023-05-19T06:42:53;101794.38;;;13.72;54.19
54194;BME280;40102;50.906;6.972;2023-05-19T06:45:18;101794.84;;;13.63;52.72
54194;BME280;40102;50.906;6.972;2023-05-19T06:47:48;101799.75;;;13.54;52.78
54194;BME280;40102;50.906;6.972;2023-05-19T06:50:14;101798.09;;;13.52;53.57
54194;BME280;40102;50.906;6.972;2023-05-19T06:52:39;101800.78;;;13.52;53.38
54194;BME280;40102;50.906;6.972;2023-05-19T06:55:05;101786.94;;;13.59;53.87
54194;BME280;40102;50.906;6.972;2023-05-19T06:57:31;101791.63;;;13.73;53.44
54194;BME280;40102;50.906;6.972;2023-05-19T06:59:56;101796.09;;;13.90;53.10
54194;BME280;40102;50.906;6.972;2023-05-19T07:02:21;101793.56;;;14.04;52.42
54194;BME280;40102;50.906;6.972;2023-05-19T07:04:47;101799.47;;;14.11;52.12
54194;BME280;40102;50.906;6.972;2023-05-19T07:07:12;101797.13;;;13.87;52.84
54194;BME280;40102;50.906;6.972;2023-05-19T07:09:38;101797.16;;;13.70;52.27
54194;BME280;40102;50.906;6.972;2023-05-19T07:12:03;101798.41;;;13.63;52.72
54194;BME280;40102;50.906;6.972;2023-05-19T07:14:29;101794.84;;;13.63;52.62
54194;BME280;40102;50.906;6.972;2023-05-19T07:16:54;101798.72;;;13.74;52.95
54194;BME280;40102;50.906;6.972;2023-05-19T07:19:20;101786.78;;;13.80;51.46
54194;BME280;40102;50.906;6.972;2023-05-19T07:21:45;101795.09;;;13.75;52.48
54194;BME280;40102;50.906;6.972;2023-05-19T07:24:11;101792.94;;;13.82;52.79
54194;BME280;40102;50.906;6.972;2023-05-19T07:26:36;101793.19;;;13.94;52.76
54194;BME280;40102;50.906;6.972;2023-05-19T07:29:02;101789.84;;;14.07;52.02
54194;BME280;40102;50.906;6.972;2023-05-19T07:31:27;101789.50;;;14.13;51.51
54194;BME280;40102;50.906;6.972;2023-05-19T07:33:52;101788.31;;;14.18;51.12
54194;BME280;40102;50.906;6.972;2023-05-19T07:36:18;101787.81;;;14.27;51.25
54194;BME280;40102;50.906;6.972;2023-05-19T07:38:45;101786.44;;;14.36;51.71
54194;BME280;40102;50.906;6.972;2023-05-19T07:41:11;101786.94;;;14.27;52.67
54194;BME280;40102;50.906;6.972;2023-05-19T07:43:36;101792.94;;;14.32;52.38
54194;BME280;40102;50.906;6.972;2023-05-19T07:46:02;101794.34;;;14.39;52.12
54194;BME280;40102;50.906;6.972;2023-05-19T07:48:27;101781.47;;;14.46;51.75
54194;BME280;40102;50.906;6.972;2023-05-19T07:50:53;101790.59;;;14.59;51.26
54194;BME280;40102;50.906;6.972;2023-05-19T07:53:19;101785.56;;;14.69;51.00
54194;BME280;40102;50.906;6.972;2023-05-19T07:55:45;101779.84;;;14.75;50.64
54194;BME280;40102;50.906;6.972;2023-05-19T07:58:14;101779.50;;;14.81;50.59
54194;BME280;40102;50.906;6.972;2023-05-19T08:00:39;101772.09;;;14.84;50.57
54194;BME280;40102;50.906;6.972;2023-05-19T08:03:10;101763.75;;;14.89;50.73
54194;BME280;40102;50.906;6.972;2023-05-19T08:05:36;101761.50;;;14.97;50.46
54194;BME280;40102;50.906;6.972;2023-05-19T08:08:02;101768.34;;;15.03;50.37
54194;BME280;40102;50.906;6.972;2023-05-19T08:10:27;101768.09;;;15.07;50.18
54194;BME280;40102;50.906;6.972;2023-05-19T08:12:52;101761.66;;;15.10;50.38
54194;BME280;40102;50.906;6.972;2023-05-19T08:15:18;101754.25;;;15.13;50.39
54194;BME280;40102;50.906;6.972;2023-05-19T08:17:43;101755.81;;;15.17;50.05
54194;BME280;40102;50.906;6.972;2023-05-19T08:20:09;101758.44;;;15.19;49.89
54194;BME280;40102;50.906;6.972;2023-05-19T08:22:35;101760.16;;;15.20;49.40
54194;BME280;40102;50.906;6.972;2023-05-19T08:25:01;101756.00;;;15.14;49.99
54194;BME280;40102;50.906;6.972;2023-05-19T08:27:27;101756.50;;;15.21;50.03
54194;BME280;40102;50.906;6.972;2023-05-19T08:29:53;101757.19;;;15.25;50.25
54194;BME280;40102;50.906;6.972;2023-05-19T08:32:19;101751.53;;;15.29;50.24
54194;BME280;40102;50.906;6.972;2023-05-19T08:34:44;101750.50;;;15.32;50.24
54194;BME280;40102;50.906;6.972;2023-05-19T08:37:10;101743.88;;;15.37;49.73
54194;BME280;40102;50.906;6.972;2023-05-19T08:39:36;101738.19;;;15.42;49.73
54194;BME280;40102;50.906;6.972;2023-05-19T08:42:01;101740.72;;;15.45;49.64
54194;BME280;40102;50.906;6.972;2023-05-19T08:44:26;101733.31;;;15.48;49.10
54194;BME280;40102;50.906;6.972;2023-05-19T08:46:54;101734.09;;;15.50;49.18
54194;BME280;40102;50.906;6.972;2023-05-19T08:49:26;101733.03;;;15.53;48.73
54194;BME280;40102;50.906;6.972;2023-05-19T08:54:48;101725.91;;;15.52;47.60
54194;BME280;40102;50.906;6.972;2023-05-19T08:57:17;101725.81;;;15.53;47.78
54194;BME280;40102;50.906;6.972;2023-05-19T08:59:43;101726.69;;;15.54;47.86
54194;BME280;40102;50.906;6.972;2023-05-19T09:02:10;101729.22;;;15.57;47.57
54194;BME280;40102;50.906;6.972;2023-05-19T09:04:38;101719.22;;;15.59;47.61
54194;BME280;40102;50.906;6.972;2023-05-19T09:07:04;101723.41;;;15.63;47.09
54194;BME280;40102;50.906;6.972;2023-05-19T09:09:30;101721.41;;;15.67;47.33
54194;BME280;40102;50.906;6.972;2023-05-19T09:11:55;101712.25;;;15.69;47.20
54194;BME280;40102;50.906;6.972;2023-05-19T09:14:21;101714.69;;;15.74;47.32
54194;BME280;40102;50.906;6.972;2023-05-19T09:16:47;101714.56;;;15.75;47.07
54194;BME280;40102;50.906;6.972;2023-05-19T09:19:15;101707.06;;;15.80;46.61
54194;BME280;40102;50.906;6.972;2023-05-19T09:21:41;101705.16;;;15.82;46.32
54194;BME280;40102;50.906;6.972;2023-05-19T09:24:08;101697.72;;;15.86;46.04
54194;BME280;40102;50.906;6.972;2023-05-19T09:26:38;101701.38;;;15.85;46.05
54194;BME280;40102;50.906;6.972;2023-05-19T09:29:30;101691.38;;;15.87;45.81
54194;BME280;40102;50.906;6.972;2023-05-19T09:31:55;101688.47;;;15.90;45.60
54194;BME280;40102;50.906;6.972;2023-05-19T09:34:30;101694.06;;;15.87;45.30
54194;BME280;40102;50.906;6.972;2023-05-19T09:36:55;101685.31;;;15.83;45.12
54194;BME280;40102;50.906;6.972;2023-05-19T09:39:25;101688.00;;;15.83;45.22
54194;BME280;40102;50.906;6.972;2023-05-19T09:41:51;101673.06;;;15.78;45.40
54194;BME280;40102;50.906;6.972;2023-05-19T09:44:26;101681.72;;;15.83;45.29
54194;BME280;40102;50.906;6.972;2023-05-19T09:46:56;101681.53;;;15.86;45.41
54194;BME280;40102;50.906;6.972;2023-05-19T09:49:24;101675.75;;;15.92;45.68
54194;BME280;40102;50.906;6.972;2023-05-19T09:51:53;101670.25;;;16.08;48.06
54194;BME280;40102;50.906;6.972;2023-05-19T09:54:20;101672.47;;;16.15;46.53
54194;BME280;40102;50.906;6.972;2023-05-19T09:56:59;101669.47;;;16.20;45.69
54194;BME280;40102;50.906;6.972;2023-05-19T09:59:26;101671.50;;;16.31;45.94
54194;BME280;40102;50.906;6.972;2023-05-19T10:05:15;101663.41;;;16.58;46.53
54194;BME280;40102;50.906;6.972;2023-05-19T10:07:43;101664.59;;;16.68;46.29
54194;BME280;40102;50.906;6.972;2023-05-19T10:10:13;101660.72;;;16.72;44.11
54194;BME280;40102;50.906;6.972;2023-05-19T10:12:39;101660.31;;;16.64;42.98
54194;BME280;40102;50.906;6.972;2023-05-19T10:15:10;101661.28;;;16.63;43.66
54194;BME280;40102;50.906;6.972;2023-05-19T10:17:39;101653.19;;;16.63;44.02
54194;BME280;40102;50.906;6.972;2023-05-19T10:20:15;101652.22;;;16.64;43.74
54194;BME280;40102;50.906;6.972;2023-05-19T10:22:43;101652.22;;;16.64;43.79
54194;BME280;40102;50.906;6.972;2023-05-19T10:25:09;101642.47;;;16.61;44.00
54194;BME280;40102;50.906;6.972;2023-05-19T10:27:38;101637.06;;;16.61;43.97
54194;BME280;40102;50.906;6.972;2023-05-19T10:30:08;101639.56;;;16.64;43.99
54194;BME280;40102;50.906;6.972;2023-05-19T10:32:37;101631.47;;;16.64;44.14
54194;BME280;40102;50.906;6.972;2023-05-19T10:40:28;101632.28;;;16.66;43.43
54194;BME280;40102;50.906;6.972;2023-05-19T10:43:14;101632.28;;;16.66;43.68
54194;BME280;40102;50.906;6.972;2023-05-19T10:45:48;101625.69;;;16.70;44.04
54194;BME280;40102;50.906;6.972;2023-05-19T10:48:15;101631.13;;;16.83;44.53
54194;BME280;40102;50.906;6.972;2023-05-19T10:50:45;101621.03;;;16.99;44.39
54194;BME280;40102;50.906;6.972;2023-05-19T10:53:15;101628.06;;;17.14;43.84
54194;BME280;40102;50.906;6.972;2023-05-19T10:55:52;101631.13;;;17.23;42.42
54194;BME280;40102;50.906;6.972;2023-05-19T11:01:16;101629.81;;;17.28;42.08
54194;BME280;40102;50.906;6.972;2023-05-19T11:03:46;101626.81;;;17.45;43.24
54194;BME280;40102;50.906;6.972;2023-05-19T11:06:33;101613.72;;;17.52;43.47
54194;BME280;40102;50.906;6.972;2023-05-19T11:09:13;101618.19;;;17.66;41.70
54194;BME280;40102;50.906;6.972;2023-05-19T11:11:51;101612.44;;;17.70;40.67
54194;BME280;40102;50.906;6.972;2023-05-19T11:14:22;101601.97;;;17.66;40.92
54194;BME280;40102;50.906;6.972;2023-05-19T11:16:52;101606.94;;;17.72;40.61
54194;BME280;40102;50.906;6.972;2023-05-19T11:19:27;101601.72;;;17.82;41.74
54194;BME280;40102;50.906;6.972;2023-05-19T11:21:53;101610.34;;;17.99;39.90
54194;BME280;40102;50.906;6.972;2023-05-19T11:29:43;101595.00;;;18.24;38.94
54194;BME280;40102;50.906;6.972;2023-05-19T11:32:11;101595.25;;;18.44;40.67
54194;BME280;40102;50.906;6.972;2023-05-19T11:34:37;101598.19;;;18.41;40.56
54194;BME280;40102;50.906;6.972;2023-05-19T11:37:03;101592.25;;;18.36;40.82
54194;BME280;40102;50.906;6.972;2023-05-19T11:39:30;101592.16;;;18.38;39.74
54194;BME280;40102;50.906;6.972;2023-05-19T11:41:56;101593.75;;;18.40;40.36
54194;BME280;40102;50.906;6.972;2023-05-19T11:44:21;101589.09;;;18.42;39.33
54194;BME280;40102;50.906;6.972;2023-05-19T11:46:46;101593.53;;;18.43;39.12
54194;BME280;40102;50.906;6.972;2023-05-19T11:49:12;101588.97;;;18.44;38.90
54194;BME280;40102;50.906;6.972;2023-05-19T11:51:37;101582.47;;;18.47;38.39
54194;BME280;40102;50.906;6.972;2023-05-19T11:54:03;101581.03;;;18.54;38.76
54194;BME280;40102;50.906;6.972;2023-05-19T11:56:39;101579.16;;;18.67;38.31
54194;BME280;40102;50.906;6.972;2023-05-19T11:59:04;101572.03;;;18.77;39.09
54194;BME280;40102;50.906;6.972;2023-05-19T12:01:30;101573.06;;;18.87;38.95
54194;BME280;40102;50.906;6.972;2023-05-19T12:03:56;101574.94;;;18.98;38.78
54194;BME280;40102;50.906;6.972;2023-05-19T12:06:21;101559.97;;;19.16;37.60
54194;BME280;40102;50.906;6.972;2023-05-19T12:08:50;101565.75;;;19.23;38.04
54194;BME280;40102;50.906;6.972;2023-05-19T12:11:15;101555.16;;;19.20;37.86
54194;BME280;40102;50.906;6.972;2023-05-19T12:13:41;101553.91;;;19.13;37.90
54194;BME280;40102;50.906;6.972;2023-05-19T12:16:07;101558.84;;;19.19;39.07
54194;BME280;40102;50.906;6.972;2023-05-19T12:18:36;101552.19;;;19.23;36.65
54194;BME280;40102;50.906;6.972;2023-05-19T12:21:02;101549.38;;;19.35;36.85
54194;BME280;40102;50.906;6.972;2023-05-19T12:23:28;101550.75;;;19.41;36.60
54194;BME280;40102;50.906;6.972;2023-05-19T12:25:58;101545.34;;;19.52;36.41
54194;BME280;40102;50.906;6.972;2023-05-19T12:28:23;101542.41;;;19.55;36.08
54194;BME280;40102;50.906;6.972;2023-05-19T12:30:50;101536.22;;;19.76;37.59
54194;BME280;40102;50.906;6.972;2023-05-19T12:33:17;101527.69;;;19.91;36.67
54194;BME280;40102;50.906;6.972;2023-05-19T12:35:44;101523.09;;;20.03;37.45
54194;BME280;40102;50.906;6.972;2023-05-19T12:38:10;101528.38;;;20.16;36.06
54194;BME280;40102;50.906;6.972;2023-05-19T12:40:36;101515.88;;;20.24;37.17
54194;BME280;40102;50.906;6.972;2023-05-19T12:43:03;101527.94;;;20.43;35.98
54194;BME280;40102;50.906;6.972;2023-05-19T12:45:33;101527.63;;;20.57;35.58
54194;BME280;40102;50.906;6.972;2023-05-19T12:48:01;101515.66;;;20.80;36.83
54194;BME280;40102;50.906;6.972;2023-05-19T12:50:30;101514.38;;;21.05;35.85
54194;BME280;40102;50.906;6.972;2023-05-19T12:52:55;101507.22;;;21.25;34.82
54194;BME280;40102;50.906;6.972;2023-05-19T12:55:22;101508.88;;;21.47;35.76
54194;BME280;40102;50.906;6.972;2023-05-19T12:57:49;101517.63;;;21.81;35.73
54194;BME280;40102;50.906;6.972;2023-05-19T13:00:21;101514.75;;;21.82;32.89
54194;BME280;40102;50.906;6.972;2023-05-19T13:03:16;101520.78;;;21.86;33.61
54194;BME280;40102;50.906;6.972;2023-05-19T13:05:44;101504.81;;;22.02;34.13
54194;BME280;40102;50.906;6.972;2023-05-19T13:08:17;101521.03;;;22.23;33.30
54194;BME280;40102;50.906;6.972;2023-05-19T13:10:44;101513.31;;;22.47;32.96
54194;BME280;40102;50.906;6.972;2023-05-19T13:13:10;101508.56;;;22.69;33.14
54194;BME280;40102;50.906;6.972;2023-05-19T13:15:39;101501.69;;;22.93;32.10
54194;BME280;40102;50.906;6.972;2023-05-19T13:18:07;101502.50;;;23.13;33.35
54194;BME280;40102;50.906;6.972;2023-05-19T13:20:33;101500.56;;;23.33;31.62
54194;BME280;40102;50.906;6.972;2023-05-19T13:22:59;101491.47;;;23.42;31.42
54194;BME280;40102;50.906;6.972;2023-05-19T13:25:25;101484.66;;;23.66;33.42